sensor_id;sensor_type;location;lat;lon;timestamp;P1;durP1;ratioP1;P2;durP2;ratioP2
21099;SDS011;10708;50.824;4.408;2023-04-25T00:01:06;97.80;;;91.97;;
21099;SDS011;10708;50.824;4.408;2023-04-25T00:06:10;156.87;;;147.93;;
21099;SDS011;10708;50.824;4.408;2023-04-25T00:11:13;48.03;;;44.53;;
21099;SDS011;10708;50.824;4.408;2023-04-25T00:16:15;50.53;;;46.37;;
21099;SDS011;10708;50.824;4.408;2023-04-25T00:21:19;91.17;;;85.13;;
21099;SDS011;10708;50.824;4.408;2023-04-25T00:26:24;50.50;;;47.07;;
21099;SDS011;10708;50.824;4.408;2023-04-25T00:31:27;38.30;;;34.60;;
21099;SDS011;10708;50.824;4.408;2023-04-25T00:36:31;84.80;;;79.17;;
21099;SDS011;10708;50.824;4.408;2023-04-25T00:41:34;68.90;;;63.63;;
21099;SDS011;10708;50.824;4.408;2023-04-25T00:46:37;99.27;;;92.60;;
21099;SDS011;10708;50.824;4.408;2023-04-25T00:51:41;75.77;;;70.50;;
21099;SDS011;10708;50.824;4.408;2023-04-25T00:56:45;38.00;;;35.13;;
21099;SDS011;10708;50.824;4.408;2023-04-25T01:01:48;38.37;;;35.57;;
21099;SDS011;10708;50.824;4.408;2023-04-25T01:06:52;57.13;;;53.53;;
21099;SDS011;10708;50.824;4.408;2023-04-25T01:11:56;23.30;;;21.20;;
21099;SDS011;10708;50.824;4.408;2023-04-25T01:16:59;41.17;;;38.00;;
21099;SDS011;10708;50.824;4.408;2023-04-25T01:22:03;20.27;;;18.27;;
21099;SDS011;10708;50.824;4.408;2023-04-25T01:27:05;20.53;;;18.03;;
21099;SDS011;10708;50.824;4.408;2023-04-25T01:32:08;39.67;;;36.47;;
21099;SDS011;10708;50.824;4.408;2023-04-25T01:37:13;46.13;;;42.30;;
21099;SDS011;10708;50.824;4.408;2023-04-25T01:42:15;37.90;;;34.17;;
21099;SDS011;10708;50.824;4.408;2023-04-25T01:47:18;34.63;;;31.23;;
21099;SDS011;10708;50.824;4.408;2023-04-25T01:52:21;64.77;;;60.40;;
21099;SDS011;10708;50.824;4.408;2023-04-25T01:57:24;39.60;;;35.73;;
21099;SDS011;10708;50.824;4.408;2023-04-25T02:02:26;30.20;;;27.43;;
21099;SDS011;10708;50.824;4.408;2023-04-25T02:07:30;64.70;;;59.93;;
21099;SDS011;10708;50.824;4.408;2023-04-25T02:12:33;27.40;;;24.07;;
21099;SDS011;10708;50.824;4.408;2023-04-25T02:17:37;52.43;;;48.40;;
21099;SDS011;10708;50.824;4.408;2023-04-25T02:22:41;39.60;;;35.80;;
21099;SDS011;10708;50.824;4.408;2023-04-25T02:27:43;30.97;;;27.90;;
21099;SDS011;10708;50.824;4.408;2023-04-25T02:32:46;29.67;;;24.97;;
21099;SDS011;10708;50.824;4.408;2023-04-25T02:37:50;31.30;;;28.40;;
21099;SDS011;10708;50.824;4.408;2023-04-25T02:42:52;25.33;;;22.10;;
21099;SDS011;10708;50.824;4.408;2023-04-25T02:47:55;31.47;;;28.80;;
21099;SDS011;10708;50.824;4.408;2023-04-25T02:52:58;31.80;;;28.50;;
21099;SDS011;10708;50.824;4.408;2023-04-25T02:58:01;31.00;;;23.83;;
21099;SDS011;10708;50.824;4.408;2023-04-25T03:03:03;32.47;;;23.80;;
21099;SDS011;10708;50.824;4.408;2023-04-25T03:08:08;24.73;;;22.40;;
21099;SDS011;10708;50.824;4.408;2023-04-25T03:13:11;27.27;;;24.70;;
21099;SDS011;10708;50.824;4.408;2023-04-25T03:18:14;25.10;;;21.50;;
21099;SDS011;10708;50.824;4.408;2023-04-25T03:23:17;24.33;;;20.30;;
21099;SDS011;10708;50.824;4.408;2023-04-25T03:28:21;27.37;;;20.93;;
21099;SDS011;10708;50.824;4.408;2023-04-25T03:33:24;21.57;;;19.40;;
21099;SDS011;10708;50.824;4.408;2023-04-25T03:38:27;23.93;;;21.73;;
21099;SDS011;10708;50.824;4.408;2023-04-25T03:43:30;23.23;;;20.83;;
21099;SDS011;10708;50.824;4.408;2023-04-25T03:48:32;29.03;;;26.07;;
21099;SDS011;10708;50.824;4.408;2023-04-25T03:53:36;23.00;;;20.67;;
21099;SDS011;10708;50.824;4.408;2023-04-25T03:58:39;23.23;;;20.97;;
21099;SDS011;10708;50.824;4.408;2023-04-25T04:03:41;22.73;;;20.13;;
21099;SDS011;10708;50.824;4.408;2023-04-25T04:08:45;23.20;;;19.83;;
21099;SDS011;10708;50.824;4.408;2023-04-25T04:13:47;25.57;;;19.20;;
21099;SDS011;10708;50.824;4.408;2023-04-25T04:18:50;22.33;;;19.83;;
21099;SDS011;10708;50.824;4.408;2023-04-25T04:23:53;23.70;;;21.33;;
21099;SDS011;10708;50.824;4.408;2023-04-25T04:28:58;23.53;;;20.73;;
21099;SDS011;10708;50.824;4.408;2023-04-25T04:34:01;31.63;;;29.20;;
21099;SDS011;10708;50.824;4.408;2023-04-25T04:39:05;30.17;;;27.77;;
21099;SDS011;10708;50.824;4.408;2023-04-25T04:44:09;36.80;;;33.50;;
21099;SDS011;10708;50.824;4.408;2023-04-25T04:49:12;23.67;;;20.63;;
21099;SDS011;10708;50.824;4.408;2023-04-25T04:54:17;25.07;;;22.73;;
21099;SDS011;10708;50.824;4.408;2023-04-25T04:59:19;21.97;;;20.23;;
21099;SDS011;10708;50.824;4.408;2023-04-25T05:04:22;26.57;;;22.80;;
21099;SDS011;10708;50.824;4.408;2023-04-25T05:09:26;20.40;;;16.33;;
21099;SDS011;10708;50.824;4.408;2023-04-25T05:14:28;24.40;;;22.23;;
21099;SDS011;10708;50.824;4.408;2023-04-25T05:19:31;45.17;;;41.53;;
21099;SDS011;10708;50.824;4.408;2023-04-25T05:24:36;19.03;;;16.43;;
21099;SDS011;10708;50.824;4.408;2023-04-25T05:29:38;22.13;;;19.13;;
21099;SDS011;10708;50.824;4.408;2023-04-25T05:34:40;22.27;;;20.17;;
21099;SDS011;10708;50.824;4.408;2023-04-25T05:39:46;22.57;;;17.70;;
21099;SDS011;10708;50.824;4.408;2023-04-25T05:44:49;17.00;;;15.27;;
21099;SDS011;10708;50.824;4.408;2023-04-25T05:49:52;23.70;;;21.77;;
21099;SDS011;10708;50.824;4.408;2023-04-25T05:54:56;58.10;;;54.00;;
21099;SDS011;10708;50.824;4.408;2023-04-25T05:59:58;26.20;;;23.93;;
21099;SDS011;10708;50.824;4.408;2023-04-25T06:05:00;75.90;;;71.47;;
21099;SDS011;10708;50.824;4.408;2023-04-25T06:10:06;35.17;;;32.00;;
21099;SDS011;10708;50.824;4.408;2023-04-25T06:15:09;30.23;;;25.83;;
21099;SDS011;10708;50.824;4.408;2023-04-25T06:20:12;30.03;;;27.30;;
21099;SDS011;10708;50.824;4.408;2023-04-25T06:25:16;38.23;;;34.87;;
21099;SDS011;10708;50.824;4.408;2023-04-25T06:30:19;36.53;;;33.40;;
21099;SDS011;10708;50.824;4.408;2023-04-25T06:35:24;34.17;;;30.93;;
21099;SDS011;10708;50.824;4.408;2023-04-25T06:40:28;29.43;;;26.43;;
21099;SDS011;10708;50.824;4.408;2023-04-25T06:45:31;29.63;;;26.87;;
21099;SDS011;10708;50.824;4.408;2023-04-25T06:50:34;34.47;;;31.37;;
21099;SDS011;10708;50.824;4.408;2023-04-25T06:55:38;33.97;;;30.73;;
21099;SDS011;10708;50.824;4.408;2023-04-25T07:00:41;37.73;;;34.80;;
21099;SDS011;10708;50.824;4.408;2023-04-25T07:05:44;37.43;;;34.50;;
21099;SDS011;10708;50.824;4.408;2023-04-25T07:10:49;44.30;;;41.40;;
21099;SDS011;10708;50.824;4.408;2023-04-25T07:15:54;32.20;;;29.17;;
21099;SDS011;10708;50.824;4.408;2023-04-25T07:20:57;49.60;;;46.17;;
21099;SDS011;10708;50.824;4.408;2023-04-25T07:26:02;52.57;;;49.17;;
21099;SDS011;10708;50.824;4.408;2023-04-25T07:31:06;27.27;;;24.87;;
21099;SDS011;10708;50.824;4.408;2023-04-25T07:36:09;51.20;;;47.53;;
21099;SDS011;10708;50.824;4.408;2023-04-25T07:41:13;44.20;;;40.73;;
21099;SDS011;10708;50.824;4.408;2023-04-25T07:46:15;64.93;;;61.17;;
21099;SDS011;10708;50.824;4.408;2023-04-25T07:51:18;56.77;;;53.03;;
21099;SDS011;10708;50.824;4.408;2023-04-25T07:56:27;24.93;;;22.47;;
21099;SDS011;10708;50.824;4.408;2023-04-25T08:01:29;25.87;;;24.00;;
21099;SDS011;10708;50.824;4.408;2023-04-25T08:06:32;26.10;;;19.80;;
21099;SDS011;10708;50.824;4.408;2023-04-25T08:11:36;23.43;;;18.83;;
21099;SDS011;10708;50.824;4.408;2023-04-25T08:16:38;19.77;;;17.43;;
21099;SDS011;10708;50.824;4.408;2023-04-25T08:21:41;27.70;;;24.60;;
21099;SDS011;10708;50.824;4.408;2023-04-25T08:26:46;26.13;;;24.03;;
21099;SDS011;10708;50.824;4.408;2023-04-25T08:31:48;32.07;;;29.70;;
21099;SDS011;10708;50.824;4.408;2023-04-25T08:36:51;33.97;;;31.77;;
21099;SDS011;10708;50.824;4.408;2023-04-25T08:41:55;37.13;;;34.67;;
21099;SDS011;10708;50.824;4.408;2023-04-25T08:46:59;19.20;;;17.37;;
21099;SDS011;10708;50.824;4.408;2023-04-25T08:52:11;28.80;;;26.60;;
21099;SDS011;10708;50.824;4.408;2023-04-25T08:57:23;28.90;;;26.30;;
21099;SDS011;10708;50.824;4.408;2023-04-25T09:02:32;59.93;;;56.67;;
21099;SDS011;10708;50.824;4.408;2023-04-25T09:07:37;65.20;;;60.78;;
21099;SDS011;10708;50.824;4.408;2023-04-25T09:12:41;51.10;;;46.72;;
21099;SDS011;10708;50.824;4.408;2023-04-25T09:17:43;33.97;;;31.27;;
21099;SDS011;10708;50.824;4.408;2023-04-25T09:22:46;58.80;;;55.47;;
21099;SDS011;10708;50.824;4.408;2023-04-25T09:27:50;43.30;;;40.47;;
21099;SDS011;10708;50.824;4.408;2023-04-25T09:32:56;29.10;;;26.83;;
21099;SDS011;10708;50.824;4.408;2023-04-25T09:37:59;64.43;;;60.57;;
21099;SDS011;10708;50.824;4.408;2023-04-25T09:43:03;26.43;;;23.90;;
21099;SDS011;10708;50.824;4.408;2023-04-25T09:48:16;27.53;;;25.10;;
21099;SDS011;10708;50.824;4.408;2023-04-25T09:53:23;27.93;;;25.83;;
21099;SDS011;10708;50.824;4.408;2023-04-25T09:58:33;20.00;;;18.07;;
21099;SDS011;10708;50.824;4.408;2023-04-25T10:03:42;42.57;;;39.67;;
21099;SDS011;10708;50.824;4.408;2023-04-25T10:08:49;89.43;;;84.27;;
21099;SDS011;10708;50.824;4.408;2023-04-25T10:13:57;215.85;;;204.60;;
21099;SDS011;10708;50.824;4.408;2023-04-25T10:19:01;65.53;;;61.75;;
21099;SDS011;10708;50.824;4.408;2023-04-25T10:24:04;70.68;;;66.45;;
21099;SDS011;10708;50.824;4.408;2023-04-25T10:29:09;58.17;;;54.75;;
21099;SDS011;10708;50.824;4.408;2023-04-25T10:34:12;75.10;;;71.03;;
21099;SDS011;10708;50.824;4.408;2023-04-25T10:39:15;139.20;;;132.07;;
21099;SDS011;10708;50.824;4.408;2023-04-25T10:44:27;60.30;;;56.95;;
21099;SDS011;10708;50.824;4.408;2023-04-25T10:49:31;46.58;;;43.75;;
21099;SDS011;10708;50.824;4.408;2023-04-25T10:54:34;65.80;;;62.17;;
21099;SDS011;10708;50.824;4.408;2023-04-25T10:59:44;50.78;;;48.00;;
21099;SDS011;10708;50.824;4.408;2023-04-25T11:04:47;123.30;;;117.10;;
21099;SDS011;10708;50.824;4.408;2023-04-25T11:09:49;44.15;;;41.67;;
21099;SDS011;10708;50.824;4.408;2023-04-25T11:14:59;34.00;;;31.50;;
21099;SDS011;10708;50.824;4.408;2023-04-25T11:20:03;89.10;;;83.53;;
21099;SDS011;10708;50.824;4.408;2023-04-25T11:25:12;66.17;;;62.47;;
21099;SDS011;10708;50.824;4.408;2023-04-25T11:30:17;42.57;;;39.87;;
21099;SDS011;10708;50.824;4.408;2023-04-25T11:35:21;19.80;;;18.50;;
21099;SDS011;10708;50.824;4.408;2023-04-25T11:40:25;17.95;;;16.40;;
21099;SDS011;10708;50.824;4.408;2023-04-25T11:45:29;59.83;;;55.87;;
21099;SDS011;10708;50.824;4.408;2023-04-25T11:50:32;35.97;;;33.90;;
21099;SDS011;10708;50.824;4.408;2023-04-25T11:55:35;33.58;;;31.55;;
21099;SDS011;10708;50.824;4.408;2023-04-25T12:00:41;18.97;;;17.77;;
21099;SDS011;10708;50.824;4.408;2023-04-25T12:05:44;52.67;;;49.57;;
21099;SDS011;10708;50.824;4.408;2023-04-25T12:10:47;34.83;;;32.73;;
21099;SDS011;10708;50.824;4.408;2023-04-25T12:15:53;30.07;;;28.27;;
21099;SDS011;10708;50.824;4.408;2023-04-25T12:20:57;70.18;;;66.38;;
21099;SDS011;10708;50.824;4.408;2023-04-25T12:26:00;22.90;;;21.23;;
21099;SDS011;10708;50.824;4.408;2023-04-25T12:31:05;22.65;;;21.35;;
21099;SDS011;10708;50.824;4.408;2023-04-25T12:36:08;27.92;;;26.20;;
21099;SDS011;10708;50.824;4.408;2023-04-25T12:41:12;21.50;;;20.23;;
21099;SDS011;10708;50.824;4.408;2023-04-25T12:46:16;38.10;;;35.97;;
21099;SDS011;10708;50.824;4.408;2023-04-25T12:51:19;39.70;;;37.53;;
21099;SDS011;10708;50.824;4.408;2023-04-25T12:56:21;20.57;;;19.47;;
21099;SDS011;10708;50.824;4.408;2023-04-25T13:01:25;15.27;;;14.33;;
21099;SDS011;10708;50.824;4.408;2023-04-25T13:06:28;79.80;;;75.00;;
21099;SDS011;10708;50.824;4.408;2023-04-25T13:11:31;59.13;;;56.03;;
21099;SDS011;10708;50.824;4.408;2023-04-25T13:16:35;19.13;;;17.83;;
21099;SDS011;10708;50.824;4.408;2023-04-25T13:21:37;66.00;;;62.47;;
21099;SDS011;10708;50.824;4.408;2023-04-25T13:26:40;26.43;;;24.67;;
21099;SDS011;10708;50.824;4.408;2023-04-25T13:31:44;48.17;;;45.17;;
21099;SDS011;10708;50.824;4.408;2023-04-25T13:36:47;32.80;;;30.93;;
21099;SDS011;10708;50.824;4.408;2023-04-25T13:41:49;28.37;;;26.80;;
21099;SDS011;10708;50.824;4.408;2023-04-25T13:46:53;31.00;;;29.23;;
21099;SDS011;10708;50.824;4.408;2023-04-25T13:51:55;22.17;;;20.63;;
21099;SDS011;10708;50.824;4.408;2023-04-25T13:56:58;26.93;;;25.37;;
21099;SDS011;10708;50.824;4.408;2023-04-25T14:02:03;47.90;;;45.33;;
21099;SDS011;10708;50.824;4.408;2023-04-25T14:07:05;64.47;;;61.07;;
21099;SDS011;10708;50.824;4.408;2023-04-25T14:12:08;56.60;;;53.50;;
21099;SDS011;10708;50.824;4.408;2023-04-25T14:17:13;51.67;;;48.57;;
21099;SDS011;10708;50.824;4.408;2023-04-25T14:22:15;104.37;;;99.07;;
21099;SDS011;10708;50.824;4.408;2023-04-25T14:27:18;68.47;;;64.87;;
21099;SDS011;10708;50.824;4.408;2023-04-25T14:32:22;46.83;;;43.97;;
21099;SDS011;10708;50.824;4.408;2023-04-25T14:37:24;125.03;;;118.50;;
21099;SDS011;10708;50.824;4.408;2023-04-25T14:42:27;50.87;;;48.07;;
21099;SDS011;10708;50.824;4.408;2023-04-25T14:47:31;19.73;;;18.30;;
21099;SDS011;10708;50.824;4.408;2023-04-25T14:52:33;92.57;;;87.70;;
21099;SDS011;10708;50.824;4.408;2023-04-25T14:57:36;51.10;;;47.90;;
21099;SDS011;10708;50.824;4.408;2023-04-25T15:02:41;28.57;;;26.97;;
21099;SDS011;10708;50.824;4.408;2023-04-25T15:07:44;43.87;;;41.07;;
21099;SDS011;10708;50.824;4.408;2023-04-25T15:12:48;18.43;;;17.17;;
21099;SDS011;10708;50.824;4.408;2023-04-25T15:17:53;22.63;;;20.97;;
21099;SDS011;10708;50.824;4.408;2023-04-25T15:22:56;21.00;;;19.50;;
21099;SDS011;10708;50.824;4.408;2023-04-25T15:27:59;19.17;;;17.90;;
21099;SDS011;10708;50.824;4.408;2023-04-25T15:33:03;24.53;;;23.13;;
21099;SDS011;10708;50.824;4.408;2023-04-25T15:38:06;23.70;;;22.20;;
21099;SDS011;10708;50.824;4.408;2023-04-25T15:43:11;17.47;;;16.37;;
21099;SDS011;10708;50.824;4.408;2023-04-25T15:48:16;20.43;;;19.13;;
21099;SDS011;10708;50.824;4.408;2023-04-25T15:53:19;34.53;;;32.60;;
21099;SDS011;10708;50.824;4.408;2023-04-25T15:58:22;29.03;;;27.13;;
21099;SDS011;10708;50.824;4.408;2023-04-25T16:03:25;14.67;;;13.57;;
21099;SDS011;10708;50.824;4.408;2023-04-25T16:08:28;36.93;;;34.87;;
21099;SDS011;10708;50.824;4.408;2023-04-25T16:13:33;49.57;;;46.87;;
21099;SDS011;10708;50.824;4.408;2023-04-25T16:18:37;92.20;;;87.17;;
21099;SDS011;10708;50.824;4.408;2023-04-25T16:23:40;67.80;;;63.87;;
21099;SDS011;10708;50.824;4.408;2023-04-25T16:28:43;26.57;;;24.87;;
21099;SDS011;10708;50.824;4.408;2023-04-25T16:33:47;18.07;;;16.43;;
21099;SDS011;10708;50.824;4.408;2023-04-25T16:38:49;92.07;;;87.30;;
21099;SDS011;10708;50.824;4.408;2023-04-25T16:43:52;73.87;;;70.13;;
21099;SDS011;10708;50.824;4.408;2023-04-25T16:48:57;20.07;;;18.97;;
21099;SDS011;10708;50.824;4.408;2023-04-25T16:54:00;597.53;;;172.47;;
21099;SDS011;10708;50.824;4.408;2023-04-25T16:59:03;23.37;;;21.40;;
21099;SDS011;10708;50.824;4.408;2023-04-25T17:04:07;32.00;;;29.83;;
21099;SDS011;10708;50.824;4.408;2023-04-25T17:09:10;26.47;;;24.87;;
21099;SDS011;10708;50.824;4.408;2023-04-25T17:14:12;41.70;;;38.50;;
21099;SDS011;10708;50.824;4.408;2023-04-25T17:19:16;40.83;;;38.30;;
21099;SDS011;10708;50.824;4.408;2023-04-25T17:24:18;28.87;;;26.17;;
21099;SDS011;10708;50.824;4.408;2023-04-25T17:29:21;599.43;;;186.63;;
21099;SDS011;10708;50.824;4.408;2023-04-25T17:34:25;14.40;;;13.37;;
21099;SDS011;10708;50.824;4.408;2023-04-25T17:39:28;23.00;;;21.70;;
21099;SDS011;10708;50.824;4.408;2023-04-25T17:44:33;58.70;;;55.13;;
21099;SDS011;10708;50.824;4.408;2023-04-25T17:49:37;124.97;;;118.57;;
21099;SDS011;10708;50.824;4.408;2023-04-25T17:54:39;56.67;;;53.40;;
21099;SDS011;10708;50.824;4.408;2023-04-25T17:59:41;33.60;;;31.43;;
21099;SDS011;10708;50.824;4.408;2023-04-25T18:04:45;52.47;;;49.17;;
21099;SDS011;10708;50.824;4.408;2023-04-25T18:09:48;42.40;;;40.03;;
21099;SDS011;10708;50.824;4.408;2023-04-25T18:14:50;61.40;;;58.17;;
21099;SDS011;10708;50.824;4.408;2023-04-25T18:19:54;38.90;;;36.60;;
21099;SDS011;10708;50.824;4.408;2023-04-25T18:24:56;14.10;;;13.00;;
21099;SDS011;10708;50.824;4.408;2023-04-25T18:30:00;12.90;;;12.00;;
21099;SDS011;10708;50.824;4.408;2023-04-25T18:35:04;12.10;;;11.23;;
21099;SDS011;10708;50.824;4.408;2023-04-25T18:40:09;26.43;;;24.63;;
21099;SDS011;10708;50.824;4.408;2023-04-25T18:45:13;17.73;;;16.77;;
21099;SDS011;10708;50.824;4.408;2023-04-25T18:50:17;29.33;;;27.27;;
21099;SDS011;10708;50.824;4.408;2023-04-25T18:55:22;22.53;;;20.87;;
21099;SDS011;10708;50.824;4.408;2023-04-25T19:00:26;26.47;;;24.70;;
21099;SDS011;10708;50.824;4.408;2023-04-25T19:05:32;19.13;;;17.93;;
21099;SDS011;10708;50.824;4.408;2023-04-25T19:10:34;30.77;;;28.83;;
21099;SDS011;10708;50.824;4.408;2023-04-25T19:15:38;29.93;;;28.00;;
21099;SDS011;10708;50.824;4.408;2023-04-25T19:20:42;71.90;;;67.80;;
21099;SDS011;10708;50.824;4.408;2023-04-25T19:25:44;16.73;;;15.70;;
21099;SDS011;10708;50.824;4.408;2023-04-25T19:30:47;59.03;;;55.77;;
21099;SDS011;10708;50.824;4.408;2023-04-25T19:35:52;23.27;;;22.00;;
21099;SDS011;10708;50.824;4.408;2023-04-25T19:40:55;44.77;;;42.13;;
21099;SDS011;10708;50.824;4.408;2023-04-25T19:46:03;79.33;;;74.47;;
21099;SDS011;10708;50.824;4.408;2023-04-25T19:51:07;23.33;;;21.80;;
21099;SDS011;10708;50.824;4.408;2023-04-25T19:56:09;28.30;;;26.50;;
21099;SDS011;10708;50.824;4.408;2023-04-25T20:01:12;57.20;;;54.10;;
21099;SDS011;10708;50.824;4.408;2023-04-25T20:06:18;47.10;;;44.13;;
21099;SDS011;10708;50.824;4.408;2023-04-25T20:11:21;122.73;;;116.03;;
21099;SDS011;10708;50.824;4.408;2023-04-25T20:16:23;43.53;;;41.00;;
21099;SDS011;10708;50.824;4.408;2023-04-25T20:21:27;483.33;;;148.60;;
21099;SDS011;10708;50.824;4.408;2023-04-25T20:26:32;466.97;;;142.60;;
21099;SDS011;10708;50.824;4.408;2023-04-25T20:31:35;455.00;;;138.77;;
21099;SDS011;10708;50.824;4.408;2023-04-25T20:36:39;479.20;;;136.53;;
21099;SDS011;10708;50.824;4.408;2023-04-25T20:41:42;506.53;;;240.03;;
21099;SDS011;10708;50.824;4.408;2023-04-25T20:46:55;489.90;;;249.03;;
21099;SDS011;10708;50.824;4.408;2023-04-25T20:51:59;418.87;;;149.20;;
21099;SDS011;10708;50.824;4.408;2023-04-25T20:57:02;435.43;;;129.10;;
21099;SDS011;10708;50.824;4.408;2023-04-25T21:02:04;452.50;;;249.67;;
21099;SDS011;10708;50.824;4.408;2023-04-25T21:07:09;384.83;;;128.27;;
21099;SDS011;10708;50.824;4.408;2023-04-25T21:12:12;380.17;;;119.80;;
21099;SDS011;10708;50.824;4.408;2023-04-25T21:17:15;399.83;;;149.07;;
21099;SDS011;10708;50.824;4.408;2023-04-25T21:22:19;375.27;;;119.70;;
21099;SDS011;10708;50.824;4.408;2023-04-25T21:27:22;389.30;;;122.83;;
21099;SDS011;10708;50.824;4.408;2023-04-25T21:32:24;417.47;;;155.63;;
21099;SDS011;10708;50.824;4.408;2023-04-25T21:37:29;463.53;;;285.30;;
21099;SDS011;10708;50.824;4.408;2023-04-25T21:42:32;414.33;;;224.57;;
21099;SDS011;10708;50.824;4.408;2023-04-25T21:47:36;393.20;;;120.80;;
21099;SDS011;10708;50.824;4.408;2023-04-25T21:52:41;376.00;;;115.73;;
21099;SDS011;10708;50.824;4.408;2023-04-25T21:57:44;406.60;;;133.00;;
21099;SDS011;10708;50.824;4.408;2023-04-25T22:02:47;383.40;;;131.33;;
21099;SDS011;10708;50.824;4.408;2023-04-25T22:07:53;385.10;;;127.50;;
21099;SDS011;10708;50.824;4.408;2023-04-25T22:12:56;374.73;;;117.53;;
21099;SDS011;10708;50.824;4.408;2023-04-25T22:17:59;388.30;;;128.53;;
21099;SDS011;10708;50.824;4.408;2023-04-25T22:23:05;395.67;;;120.30;;
21099;SDS011;10708;50.824;4.408;2023-04-25T22:28:08;380.70;;;117.00;;
21099;SDS011;10708;50.824;4.408;2023-04-25T22:33:12;418.20;;;127.33;;
21099;SDS011;10708;50.824;4.408;2023-04-25T22:38:16;416.13;;;132.07;;
21099;SDS011;10708;50.824;4.408;2023-04-25T22:43:20;413.23;;;121.60;;
21099;SDS011;10708;50.824;4.408;2023-04-25T22:48:22;385.77;;;125.40;;
21099;SDS011;10708;50.824;4.408;2023-04-25T22:53:27;404.93;;;123.77;;
21099;SDS011;10708;50.824;4.408;2023-04-25T22:58:32;392.33;;;120.53;;
21099;SDS011;10708;50.824;4.408;2023-04-25T23:03:35;396.07;;;131.63;;
21099;SDS011;10708;50.824;4.408;2023-04-25T23:08:43;359.23;;;115.70;;
21099;SDS011;10708;50.824;4.408;2023-04-25T23:13:47;365.13;;;138.10;;
21099;SDS011;10708;50.824;4.408;2023-04-25T23:18:56;364.27;;;114.90;;
21099;SDS011;10708;50.824;4.408;2023-04-25T23:24:03;379.57;;;129.40;;
21099;SDS011;10708;50.824;4.408;2023-04-25T23:29:07;449.80;;;167.00;;
21099;SDS011;10708;50.824;4.408;2023-04-25T23:34:12;395.70;;;171.10;;
21099;SDS011;10708;50.824;4.408;2023-04-25T23:39:17;418.13;;;263.53;;
21099;SDS011;10708;50.824;4.408;2023-04-25T23:44:21;342.83;;;114.20;;
21099;SDS011;10708;50.824;4.408;2023-04-25T23:49:25;349.63;;;145.33;;
21099;SDS011;10708;50.824;4.408;2023-04-25T23:54:31;357.50;;;135.53;;
21099;SDS011;10708;50.824;4.408;2023-04-25T23:59:35;345.17;;;118.80;;
